Time;durP1;ratioP1;P1;durP2;ratioP2;P2;SDS_P1;SDS_P2;PMS_P1;PMS_P2;Temp;Humidity;BMP_temperature;BMP_pressure;BME280_temperature;BME280_humidity;BME280_pressure;Samples;Min_cycle;Max_cycle;Signal;HPM_P1;HPM_P2
2023/12/17 00:01:55;;;;;;;9.60;6.60;;;;;;;6.28;69.16;96553.47;5031281;28;20188;-47
2023/12/17 00:04:22;;;;;;;8.30;6.40;;;;;;;6.25;69.08;96544.25;5040987;28;20206;-44
2023/12/17 00:06:49;;;;;;;8.77;6.40;;;;;;;6.25;69.27;96548.50;5041307;28;20201;-44
2023/12/17 00:09:17;;;;;;;6.77;5.63;;;;;;;6.07;69.23;96516.28;5030842;28;20258;-45
2023/12/17 00:11:44;;;;;;;7.40;5.40;;;;;;;6.20;69.23;96550.41;5030429;28;20277;-46
2023/12/17 00:14:12;;;;;;;7.87;5.73;;;;;;;6.21;69.19;96559.69;5030478;28;20184;-44
2023/12/17 00:16:39;;;;;;;6.97;5.77;;;;;;;6.18;69.33;96563.19;5030966;28;20211;-43
2023/12/17 00:19:06;;;;;;;8.03;6.03;;;;;;;6.17;69.27;96566.59;5030720;28;20668;-47
2023/12/17 00:21:33;;;;;;;9.37;6.90;;;;;;;6.16;69.58;96575.13;5030642;28;20199;-44
2023/12/17 00:24:00;;;;;;;7.40;5.77;;;;;;;6.12;69.27;96573.59;5031351;28;20211;-44
2023/12/17 00:26:28;;;;;;;7.97;6.13;;;;;;;6.12;69.34;96575.31;5030477;28;20342;-45
2023/12/17 00:28:55;;;;;;;9.33;6.67;;;;;;;6.12;69.41;96582.94;5030607;28;20654;-45
2023/12/17 00:31:21;;;;;;;9.53;6.27;;;;;;;5.92;69.54;96550.75;5030485;28;20238;-44
2023/12/17 00:33:48;;;;;;;8.57;6.53;;;;;;;6.08;69.44;96592.38;5039263;28;20183;-45
2023/12/17 00:36:15;;;;;;;9.63;6.50;;;;;;;6.02;69.53;96585.84;5050179;28;20179;-44
2023/12/17 00:38:42;;;;;;;10.63;6.23;;;;;;;6.05;69.58;96591.72;5050000;28;20225;-45
2023/12/17 00:41:08;;;;;;;11.97;6.57;;;;;;;6.02;69.54;96587.56;5050361;28;20183;-44
2023/12/17 00:43:37;;;;;;;9.50;7.63;;;;;;;6.02;69.70;96601.09;5049224;28;20191;-46
2023/12/17 00:46:03;;;;;;;10.33;6.67;;;;;;;5.98;69.79;96602.13;5050217;28;20187;-46
2023/12/17 00:48:31;;;;;;;9.03;6.63;;;;;;;5.98;69.75;96593.66;5050075;28;20210;-46
2023/12/17 00:50:57;;;;;;;13.37;7.70;;;;;;;5.96;69.86;96586.13;5050232;28;20258;-48
2023/12/17 00:53:24;;;;;;;9.33;7.03;;;;;;;5.95;69.84;96592.06;5049653;28;20195;-44
2023/12/17 00:55:52;;;;;;;8.00;6.10;;;;;;;5.79;70.14;96568.19;5051005;28;20191;-48
2023/12/17 00:58:19;;;;;;;10.33;7.07;;;;;;;5.79;69.77;96563.94;5050167;28;20305;-47
2023/12/17 01:00:47;;;;;;;10.10;6.47;;;;;;;5.93;70.05;96582.88;5049537;28;20191;-46
2023/12/17 01:03:14;;;;;;;9.03;7.23;;;;;;;5.91;69.87;96585.44;5033814;28;20199;-47
2023/12/17 01:05:40;;;;;;;8.70;6.80;;;;;;;5.85;70.22;96578.06;5030891;28;20188;-46
2023/12/17 01:08:07;;;;;;;10.40;6.93;;;;;;;5.89;70.11;96579.59;5029897;28;20192;-44
2023/12/17 01:10:34;;;;;;;9.73;7.13;;;;;;;5.86;69.96;96579.72;5029837;28;20281;-47
2023/12/17 01:13:00;;;;;;;9.63;7.87;;;;;;;5.76;70.01;96570.84;5030189;28;20615;-46
2023/12/17 01:15:27;;;;;;;8.67;6.77;;;;;;;5.84;69.99;96585.75;5029590;28;20180;-46
2023/12/17 01:17:55;;;;;;;10.10;7.70;;;;;;;5.83;70.15;96586.63;5047990;28;20194;-47
2023/12/17 01:20:22;;;;;;;11.00;7.57;;;;;;;5.82;70.16;96582.44;5049779;28;20198;-46
2023/12/17 01:22:49;;;;;;;10.03;7.00;;;;;;;5.73;70.02;96569.22;5049482;28;20219;-46
2023/12/17 01:25:16;;;;;;;11.80;7.43;;;;;;;5.78;70.22;96589.34;5050262;28;20256;-47
2023/12/17 01:27:42;;;;;;;9.60;7.27;;;;;;;5.75;70.36;96592.88;5045456;28;20200;-46
2023/12/17 01:30:10;;;;;;;9.47;7.73;;;;;;;5.76;70.19;96591.97;5029571;28;20401;-46
2023/12/17 01:32:37;;;;;;;12.40;7.87;;;;;;;5.74;70.22;96597.97;5047520;28;20187;-44
2023/12/17 01:35:07;;;;;;;9.53;7.30;;;;;;;5.73;70.36;96602.22;5049873;28;20541;-47
2023/12/17 01:37:34;;;;;;;9.93;7.23;;;;;;;5.72;70.38;96599.78;5032359;28;20199;-48
2023/12/17 01:40:01;;;;;;;10.50;7.47;;;;;;;5.70;70.38;96601.53;5030702;28;20568;-46
2023/12/17 01:42:28;;;;;;;10.83;7.00;;;;;;;5.68;70.27;96604.13;5033427;28;20191;-44
2023/12/17 01:44:55;;;;;;;8.33;6.93;;;;;;;5.67;70.31;96599.94;5043843;28;20195;-47
2023/12/17 01:47:22;;;;;;;11.67;7.57;;;;;;;5.57;70.34;96596.13;5034564;28;20204;-47
2023/12/17 01:49:49;;;;;;;9.27;6.70;;;;;;;5.66;70.33;96612.72;5048139;28;20190;-47
2023/12/17 01:52:18;;;;;;;9.33;6.77;;;;;;;5.63;70.28;96610.28;5049108;28;20226;-47
2023/12/17 01:54:45;;;;;;;12.33;7.40;;;;;;;5.61;70.39;96606.97;5049211;28;20209;-44
2023/12/17 01:57:13;;;;;;;11.20;7.67;;;;;;;5.55;70.40;96608.03;5049400;28;20607;-44
2023/12/17 01:59:41;;;;;;;9.73;6.93;;;;;;;5.60;70.39;96607.84;5039878;28;20195;-46
2023/12/17 02:02:10;;;;;;;9.60;6.87;;;;;;;5.59;70.46;96611.28;5029277;28;20199;-44
2023/12/17 02:04:38;;;;;;;9.57;7.00;;;;;;;5.57;70.58;96613.06;5029298;28;20195;-46
2023/12/17 02:07:05;;;;;;;10.03;7.00;;;;;;;5.55;70.45;96602.97;5043747;28;20187;-46
2023/12/17 02:09:33;;;;;;;11.10;7.60;;;;;;;5.54;70.60;96601.31;5049241;28;20718;-45
2023/12/17 02:12:00;;;;;;;9.50;7.20;;;;;;;5.54;70.52;96602.16;5051969;28;20218;-46
2023/12/17 02:14:26;;;;;;;10.90;7.10;;;;;;;5.47;70.57;96589.75;5045029;28;20184;-43
2023/12/17 02:16:53;;;;;;;11.10;7.00;;;;;;;5.51;70.60;96586.22;5032996;28;20206;-44
2023/12/17 02:19:20;;;;;;;9.13;6.53;;;;;;;5.49;70.52;96593.88;5051375;28;20202;-48
2023/12/17 02:21:47;;;;;;;8.80;6.83;;;;;;;5.49;70.50;96598.16;5053097;28;20195;-45
2023/12/17 02:24:15;;;;;;;9.40;6.50;;;;;;;5.48;70.54;96593.94;5052495;28;20246;-46
2023/12/17 02:26:42;;;;;;;9.37;6.63;;;;;;;5.47;70.54;96594.81;5046175;28;20561;-46
2023/12/17 02:29:09;;;;;;;10.03;6.77;;;;;;;5.44;70.54;96594.94;5032812;28;20271;-47
2023/12/17 02:31:35;;;;;;;7.57;6.23;;;;;;;5.23;70.56;96558.56;5034261;28;20223;-45
2023/12/17 02:34:02;;;;;;;10.23;6.73;;;;;;;5.44;70.73;96588.19;5033434;28;20562;-45
2023/12/17 02:36:29;;;;;;;10.93;6.30;;;;;;;5.44;70.65;96594.94;5032371;28;20191;-44
2023/12/17 02:38:56;;;;;;;8.10;6.60;;;;;;;5.41;70.64;96595.91;5032181;28;20618;-46
2023/12/17 02:41:24;;;;;;;8.70;6.13;;;;;;;5.41;70.65;96595.91;5030092;28;20199;-46
2023/12/17 02:43:51;;;;;;;8.77;6.67;;;;;;;5.38;70.55;96595.19;5032284;28;20190;-45
2023/12/17 02:46:18;;;;;;;8.50;5.90;;;;;;;5.24;70.69;96572.88;5031959;28;20180;-44
2023/12/17 02:48:45;;;;;;;10.50;6.60;;;;;;;5.35;70.59;96598.66;5034498;28;20176;-45
2023/12/17 02:51:11;;;;;;;9.20;6.10;;;;;;;5.24;70.93;96577.97;5032111;28;20210;-45
2023/12/17 02:53:38;;;;;;;9.23;5.43;;;;;;;5.31;70.52;96598.81;5031062;28;20344;-45
2023/12/17 02:56:06;;;;;;;6.27;5.43;;;;;;;5.35;70.50;96603.72;5032127;28;20191;-45
2023/12/17 02:58:34;;;;;;;9.70;6.37;;;;;;;5.20;70.48;96578.97;5032114;28;20603;-45
2023/12/17 03:01:00;;;;;;;9.93;6.03;;;;;;;5.24;70.63;96585.56;5031901;28;20184;-45
2023/12/17 03:03:26;;;;;;;8.17;5.93;;;;;;;5.33;70.56;96602.16;5031618;28;20187;-46
2023/12/17 03:05:53;;;;;;;7.93;6.13;;;;;;;5.32;70.47;96598.78;5032543;28;20641;-43
2023/12/17 03:08:20;;;;;;;6.97;5.80;;;;;;;5.26;70.47;96587.16;5032032;28;20183;-46
2023/12/17 03:10:47;;;;;;;8.13;6.03;;;;;;;5.31;70.51;96604.75;5031393;28;20219;-46
2023/12/17 03:13:13;;;;;;;8.63;6.50;;;;;;;5.26;70.48;96599.81;5031773;28;20259;-45
2023/12/17 03:15:41;;;;;;;6.50;5.30;;;;;;;5.28;70.44;96607.41;5031377;28;20179;-45
2023/12/17 03:18:08;;;;;;;7.77;5.77;;;;;;;5.23;70.67;96599.16;5035386;28;20254;-44
2023/12/17 03:20:35;;;;;;;5.47;4.93;;;;;;;5.27;70.46;96603.22;5031558;28;20188;-43
2023/12/17 03:23:02;;;;;;;6.20;5.07;;;;;;;5.16;70.59;96583.31;5031008;28;20297;-46
2023/12/17 03:25:28;;;;;;;7.60;5.00;;;;;;;5.23;70.41;96599.97;5031637;28;20742;-45
2023/12/17 03:27:55;;;;;;;6.47;5.33;;;;;;;5.23;70.45;96592.34;5031516;28;20184;-45
2023/12/17 03:30:23;;;;;;;6.60;5.47;;;;;;;5.23;70.39;96601.69;5031422;28;20199;-46
2023/12/17 03:32:51;;;;;;;7.00;5.50;;;;;;;5.19;70.40;96600.16;5031058;28;20281;-46
2023/12/17 03:35:18;;;;;;;6.67;5.00;;;;;;;5.21;70.71;96606.78;5032451;28;20238;-46
2023/12/17 03:37:44;;;;;;;5.67;5.17;;;;;;;5.20;70.47;96610.22;5028809;28;20245;-45
2023/12/17 03:40:13;;;;;;;7.67;5.20;;;;;;;5.19;70.50;96611.09;5031884;28;20667;-45
2023/12/17 03:42:40;;;;;;;7.53;5.10;;;;;;;5.19;70.48;96621.25;5032334;28;20187;-46
2023/12/17 03:45:07;;;;;;;7.00;4.80;;;;;;;5.11;70.36;96615.63;5031637;28;20242;-46
2023/12/17 03:47:34;;;;;;;7.37;5.30;;;;;;;5.17;70.37;96615.41;5031111;28;20246;-45
2023/12/17 03:50:02;;;;;;;6.77;5.30;;;;;;;5.16;70.20;96607.84;5033359;28;20211;-44
2023/12/17 03:52:30;;;;;;;7.03;5.10;;;;;;;4.94;70.28;96590.09;5031359;28;20265;-47
2023/12/17 03:54:57;;;;;;;6.37;4.93;;;;;;;5.15;70.41;96626.50;5033453;28;20661;-44
2023/12/17 03:57:24;;;;;;;9.43;4.60;;;;;;;5.13;70.46;96626.53;5036953;28;20188;-46
2023/12/17 03:59:50;;;;;;;6.83;5.00;;;;;;;5.12;70.42;96635.03;5035591;28;20192;-51
2023/12/17 04:02:17;;;;;;;5.33;4.77;;;;;;;5.12;70.38;96631.69;5037184;28;20179;-48
2023/12/17 04:04:44;;;;;;;5.53;4.70;;;;;;;5.12;70.43;96631.69;5033105;28;20184;-46
2023/12/17 04:07:12;;;;;;;5.00;4.50;;;;;;;5.11;70.49;96630.03;5033657;28;20644;-45
2023/12/17 04:09:39;;;;;;;5.77;4.33;;;;;;;5.10;70.37;96628.38;5031529;28;20645;-45
2023/12/17 04:12:06;;;;;;;5.43;4.20;;;;;;;5.09;70.46;96626.72;5014776;28;20642;-45
2023/12/17 04:14:33;;;;;;;4.97;4.23;;;;;;;5.09;70.44;96624.19;5008707;28;20185;-45
2023/12/17 04:17:00;;;;;;;4.77;3.90;;;;;;;5.08;70.38;96630.97;5018718;28;20615;-46
2023/12/17 04:19:27;;;;;;;5.67;4.80;;;;;;;5.07;70.36;96638.63;5044681;28;20199;-46
2023/12/17 04:21:54;;;;;;;7.13;4.70;;;;;;;5.03;70.64;96632.84;5049575;28;20248;-45
2023/12/17 04:24:22;;;;;;;5.17;4.50;;;;;;;4.99;70.39;96632.13;5047618;28;20231;-49
2023/12/17 04:26:49;;;;;;;6.07;4.93;;;;;;;5.06;70.45;96642.06;5033819;28;20746;-43
2023/12/17 04:29:15;;;;;;;5.70;4.70;;;;;;;5.02;70.24;96639.63;5027767;28;20196;-45
2023/12/17 04:31:42;;;;;;;6.97;5.50;;;;;;;5.03;70.47;96643.81;5027466;28;20223;-43
2023/12/17 04:34:10;;;;;;;5.83;4.80;;;;;;;5.02;70.47;96639.63;5026818;28;20207;-43
2023/12/17 04:36:37;;;;;;;5.27;4.20;;;;;;;4.79;70.37;96599.06;5027572;28;20190;-47
2023/12/17 04:39:04;;;;;;;5.37;4.43;;;;;;;5.03;70.30;96640.44;5027918;28;20192;-46
2023/12/17 04:41:33;;;;;;;7.13;5.07;;;;;;;5.02;70.48;96644.69;5026608;28;20202;-45
2023/12/17 04:44:00;;;;;;;5.13;4.40;;;;;;;5.01;70.37;96649.84;5027445;28;20645;-45
2023/12/17 04:46:28;;;;;;;5.47;4.70;;;;;;;4.89;70.41;96632.53;5028369;28;20199;-46
2023/12/17 04:48:55;;;;;;;5.47;4.30;;;;;;;5.00;70.40;96648.97;5028027;28;20680;-46
2023/12/17 04:51:22;;;;;;;5.57;4.33;;;;;;;4.96;70.41;96641.53;5026856;28;20215;-46
2023/12/17 04:53:49;;;;;;;5.20;4.37;;;;;;;4.99;70.37;96654.13;5025207;28;20191;-45
2023/12/17 04:56:16;;;;;;;5.70;4.40;;;;;;;4.98;70.54;96657.53;5027387;28;20187;-44
2023/12/17 04:58:44;;;;;;;6.83;4.57;;;;;;;4.98;70.46;96665.16;5026883;28;20199;-45
2023/12/17 05:01:11;;;;;;;6.87;4.33;;;;;;;4.93;70.41;96652.63;5025130;28;20291;-46
2023/12/17 05:03:38;;;;;;;5.43;4.30;;;;;;;4.94;70.33;96650.94;5027014;28;20198;-47
2023/12/17 05:06:06;;;;;;;5.27;4.23;;;;;;;4.95;70.20;96658.47;5028265;28;20638;-44
2023/12/17 05:08:33;;;;;;;5.83;5.10;;;;;;;4.94;70.43;96666.97;5027969;28;20525;-44
2023/12/17 05:11:00;;;;;;;5.93;4.83;;;;;;;4.94;70.35;96663.59;5027274;28;20602;-46
2023/12/17 05:13:27;;;;;;;6.13;4.83;;;;;;;4.91;70.44;96669.59;5026986;28;20888;-47
2023/12/17 05:15:55;;;;;;;5.80;4.47;;;;;;;4.89;70.42;96661.22;5043676;28;20198;-46
2023/12/17 05:18:22;;;;;;;5.77;4.50;;;;;;;4.92;70.51;96673.81;5049688;28;20198;-44
2023/12/17 05:20:49;;;;;;;6.00;4.47;;;;;;;4.92;70.48;96678.03;5050101;28;20214;-44
2023/12/17 05:23:16;;;;;;;5.40;4.50;;;;;;;4.91;70.38;96681.44;5049094;28;20734;-44
2023/12/17 05:25:43;;;;;;;5.67;4.60;;;;;;;4.62;70.40;96639.38;5046012;28;20700;-47
2023/12/17 05:28:11;;;;;;;5.60;4.73;;;;;;;4.89;70.35;96691.66;5029178;28;20196;-44
2023/12/17 05:30:38;;;;;;;6.10;4.97;;;;;;;4.88;70.81;96695.06;5040870;28;20184;-44
2023/12/17 05:33:07;;;;;;;5.97;4.57;;;;;;;4.23;70.51;96601.88;5029410;28;20285;-45
2023/12/17 05:35:34;;;;;;;7.03;4.83;;;;;;;4.87;70.48;96703.53;5029967;28;20279;-45
2023/12/17 05:38:00;;;;;;;5.17;4.50;;;;;;;4.63;70.34;96669.75;5029273;28;20191;-44
2023/12/17 05:40:27;;;;;;;5.57;4.83;;;;;;;4.67;70.40;96673.84;5040617;28;20203;-46
2023/12/17 05:42:54;;;;;;;6.40;5.03;;;;;;;4.87;70.35;96705.25;5048726;28;20191;-48
2023/12/17 05:45:20;;;;;;;6.30;4.63;;;;;;;4.87;70.49;96705.25;5049773;28;20187;-43
2023/12/17 05:47:47;;;;;;;5.00;4.23;;;;;;;4.63;70.64;96668.94;5053825;28;20190;-46
2023/12/17 05:50:15;;;;;;;5.93;5.20;;;;;;;4.84;70.52;96698.59;5054695;28;20224;-44
2023/12/17 05:52:42;;;;;;;6.80;4.53;;;;;;;4.88;70.43;96706.91;5056790;28;20207;-45
2023/12/17 05:55:09;;;;;;;6.40;4.93;;;;;;;4.85;70.49;96700.25;5051697;28;20188;-46
2023/12/17 05:57:36;;;;;;;6.33;5.07;;;;;;;4.89;70.42;96701.78;5036853;28;20271;-46
2023/12/17 06:00:03;;;;;;;5.63;4.80;;;;;;;4.90;70.37;96705.16;5037924;28;20192;-47
2023/12/17 06:02:29;;;;;;;6.17;4.83;;;;;;;4.90;70.38;96705.16;5053062;28;20191;-44
2023/12/17 06:04:56;;;;;;;6.43;5.00;;;;;;;4.91;70.45;96704.28;5052666;28;20183;-44
2023/12/17 06:07:24;;;;;;;8.13;4.80;;;;;;;4.93;70.25;96708.41;5053266;28;20187;-45
2023/12/17 06:09:51;;;;;;;7.93;4.97;;;;;;;4.94;70.34;96706.72;5052855;28;20733;-49
2023/12/17 06:12:18;;;;;;;5.27;4.20;;;;;;;4.95;70.37;96711.72;5052704;28;20218;-48
2023/12/17 06:14:45;;;;;;;5.93;4.67;;;;;;;4.99;70.22;96707.38;5035124;28;20219;-48
2023/12/17 06:17:11;;;;;;;5.70;4.87;;;;;;;5.01;70.03;96705.63;5049108;28;20183;-45
2023/12/17 06:19:38;;;;;;;5.03;4.40;;;;;;;4.83;70.04;96674.09;5052799;28;20199;-45
2023/12/17 06:22:05;;;;;;;7.70;5.13;;;;;;;5.11;69.94;96699.31;5052979;28;20265;-46
2023/12/17 06:24:33;;;;;;;7.03;5.20;;;;;;;5.32;69.57;96700.28;5052338;28;20667;-46
2023/12/17 06:27:00;;;;;;;6.30;5.10;;;;;;;5.62;69.29;96705.09;5053054;28;20191;-45
2023/12/17 06:29:27;;;;;;;5.43;4.93;;;;;;;5.98;69.22;96696.06;5035426;28;20683;-47
2023/12/17 06:31:54;;;;;;;6.07;4.77;;;;;;;6.41;69.44;96708.78;5047739;28;20397;-45
2023/12/17 06:34:21;;;;;;;7.03;5.10;;;;;;;6.85;69.60;96717.09;5052196;28;20210;-46
2023/12/17 06:36:48;;;;;;;5.67;4.73;;;;;;;7.23;69.79;96704.44;5052596;28;20197;-44
2023/12/17 06:39:14;;;;;;;6.07;5.40;;;;;;;7.79;69.69;96714.63;5052643;28;20199;-48
2023/12/17 06:41:45;;;;;;;6.27;4.47;;;;;;;8.31;69.51;96716.44;5052310;28;20685;-46
2023/12/17 06:44:11;;;;;;;7.53;5.03;;;;;;;8.82;69.38;96717.38;5035125;28;20188;-44
2023/12/17 06:46:38;;;;;;;5.17;4.27;;;;;;;9.32;69.14;96724.16;5031020;28;20422;-46
2023/12/17 06:49:05;;;;;;;5.03;4.53;;;;;;;9.80;68.80;96722.44;5030160;28;20199;-47
2023/12/17 06:51:32;;;;;;;6.53;4.90;;;;;;;10.34;68.45;96725.47;5029894;28;20580;-47
2023/12/17 06:53:58;;;;;;;4.80;4.37;;;;;;;10.84;67.75;96726.91;5029729;28;20680;-46
2023/12/17 06:56:25;;;;;;;4.80;4.37;;;;;;;11.32;67.16;96731.78;5029748;28;20191;-45
2023/12/17 06:58:53;;;;;;;5.57;4.77;;;;;;;11.81;66.16;96737.28;5029179;28;20223;-47
2023/12/17 07:01:20;;;;;;;6.87;5.03;;;;;;;12.26;65.54;96741.34;5041184;28;20203;-45
2023/12/17 07:03:47;;;;;;;5.80;4.93;;;;;;;12.66;64.49;96740.50;5048676;28;20191;-47
2023/12/17 07:06:14;;;;;;;6.70;5.20;;;;;;;13.14;63.59;96753.59;5049755;28;20548;-47
2023/12/17 07:08:42;;;;;;;5.30;4.80;;;;;;;13.57;62.65;96756.69;5049407;28;20197;-47
2023/12/17 07:11:09;;;;;;;6.30;5.03;;;;;;;14.02;61.82;96760.38;5049968;28;20261;-47
2023/12/17 07:13:35;;;;;;;6.33;4.73;;;;;;;14.46;60.69;96755.56;5029872;28;20250;-45
2023/12/17 07:16:04;;;;;;;6.30;4.80;;;;;;;14.87;59.75;96768.06;5033343;28;20184;-45
2023/12/17 07:18:31;;;;;;;5.43;4.60;;;;;;;15.20;59.14;96767.31;5048921;28;20206;-44
2023/12/17 07:20:58;;;;;;;6.23;5.33;;;;;;;15.43;58.69;96764.75;5047866;28;20276;-46
2023/12/17 07:23:27;;;;;;;5.40;4.87;;;;;;;15.65;58.04;96762.19;5049168;28;20246;-45
2023/12/17 07:25:53;;;;;;;5.07;4.57;;;;;;;15.94;57.23;96762.53;5049723;28;20962;-47
2023/12/17 07:28:20;;;;;;;5.50;4.63;;;;;;;16.20;56.60;96768.22;5049217;28;20187;-46
2023/12/17 07:30:47;;;;;;;5.40;4.57;;;;;;;16.50;55.69;96754.63;5049020;28;20179;-45
2023/12/17 07:33:15;;;;;;;5.47;4.93;;;;;;;16.82;54.98;96750.41;5048260;28;20214;-47
2023/12/17 07:35:42;;;;;;;5.77;5.00;;;;;;;17.09;54.37;96742.94;5048891;28;20191;-46
2023/12/17 07:38:09;;;;;;;4.93;4.37;;;;;;;17.28;54.37;96735.31;5048799;28;20628;-47
2023/12/17 07:40:36;;;;;;;5.77;5.20;;;;;;;17.37;54.09;96732.91;5049371;28;20288;-47
2023/12/17 07:43:02;;;;;;;5.77;5.17;;;;;;;17.31;53.63;96741.97;5035200;28;20188;-46
2023/12/17 07:45:29;;;;;;;6.40;4.83;;;;;;;17.19;53.60;96746.44;5028836;28;20192;-46
2023/12/17 07:47:56;;;;;;;5.17;4.37;;;;;;;17.02;53.43;96755.59;5043780;28;20187;-45
2023/12/17 07:50:24;;;;;;;5.50;4.90;;;;;;;16.81;53.43;96752.19;5048785;28;20191;-46
2023/12/17 07:52:51;;;;;;;5.80;5.20;;;;;;;16.66;53.53;96759.34;5048834;28;20292;-46
2023/12/17 07:55:17;;;;;;;4.97;4.50;;;;;;;16.45;53.41;96767.09;5048209;28;20584;-46
2023/12/17 07:57:44;;;;;;;4.87;4.37;;;;;;;16.29;53.34;96771.84;5018240;28;20746;-46
2023/12/17 08:00:13;;;;;;;5.17;4.53;;;;;;;16.10;53.21;96772.44;5028929;28;20568;-48
2023/12/17 08:02:40;;;;;;;5.23;4.50;;;;;;;15.97;53.13;96777.75;5030122;28;20215;-49
2023/12/17 08:05:08;;;;;;;7.03;5.10;;;;;;;15.74;52.96;96769.22;5028781;28;20568;-46
2023/12/17 08:07:37;;;;;;;5.43;4.57;;;;;;;15.60;53.11;96787.50;5029253;28;20246;-46
2023/12/17 08:10:04;;;;;;;5.40;4.90;;;;;;;15.38;53.20;96785.72;5028146;28;20200;-48
2023/12/17 08:12:31;;;;;;;5.60;5.00;;;;;;;15.19;53.12;96785.44;5030179;28;20220;-47
2023/12/17 08:14:58;;;;;;;5.33;4.53;;;;;;;14.91;53.26;96774.63;5040671;28;20198;-48
2023/12/17 08:17:25;;;;;;;5.50;4.90;;;;;;;14.64;53.51;96769.75;5043532;28;20180;-45
2023/12/17 08:19:51;;;;;;;5.17;4.63;;;;;;;14.36;53.60;96757.16;5028592;28;20699;-46
2023/12/17 08:22:18;;;;;;;6.10;4.53;;;;;;;14.40;53.56;96786.91;5028076;28;20887;-48
2023/12/17 08:24:46;;;;;;;6.53;4.63;;;;;;;14.21;53.72;96795.94;5029870;28;20192;-47
2023/12/17 08:27:14;;;;;;;4.90;4.13;;;;;;;14.04;53.63;96799.69;5044957;28;20187;-47
2023/12/17 08:29:41;;;;;;;4.77;4.37;;;;;;;13.86;53.91;96797.56;5045151;28;20271;-48
2023/12/17 08:32:08;;;;;;;5.07;4.57;;;;;;;13.67;54.13;96798.84;5040434;28;20206;-45
2023/12/17 08:34:37;;;;;;;4.90;4.40;;;;;;;13.50;54.11;96807.69;5029096;28;20187;-46
2023/12/17 08:37:04;;;;;;;6.60;5.13;;;;;;;13.31;54.32;96797.00;5042737;28;20183;-45
2023/12/17 08:39:31;;;;;;;5.17;4.67;;;;;;;13.18;54.35;96793.59;5048163;28;20270;-45
2023/12/17 08:41:59;;;;;;;5.40;4.90;;;;;;;13.02;54.46;96789.44;5048024;28;20187;-47
2023/12/17 08:44:26;;;;;;;5.07;4.17;;;;;;;12.87;54.60;96772.50;5047959;28;20192;-48
2023/12/17 08:46:53;;;;;;;4.77;4.20;;;;;;;12.68;54.63;96764.31;5047303;28;20203;-48
2023/12/17 08:49:20;;;;;;;5.90;4.87;;;;;;;12.57;54.99;96769.34;5043243;28;20199;-45
2023/12/17 08:51:47;;;;;;;7.03;5.50;;;;;;;12.40;54.87;96747.31;5027966;28;20183;-45
2023/12/17 08:54:14;;;;;;;5.77;4.93;;;;;;;12.30;55.21;96755.63;5009509;28;20220;-45
2023/12/17 08:56:41;;;;;;;6.93;5.67;;;;;;;12.19;55.41;96759.78;5027807;28;20246;-48
2023/12/17 08:59:09;;;;;;;5.47;4.90;;;;;;;12.09;55.36;96758.69;5028044;28;20564;-45
2023/12/17 09:01:36;;;;;;;6.50;5.20;;;;;;;11.99;55.72;96756.69;5027752;28;20195;-45
2023/12/17 09:04:03;;;;;;;5.30;4.57;;;;;;;11.90;55.54;96759.84;5027687;28;20195;-46
2023/12/17 09:06:30;;;;;;;6.37;5.60;;;;;;;11.81;55.79;96765.50;5029157;28;20184;-46
2023/12/17 09:08:56;;;;;;;6.60;5.43;;;;;;;11.59;55.80;96745.47;5029693;28;20198;-45
2023/12/17 09:11:23;;;;;;;6.97;5.70;;;;;;;11.63;55.93;96762.31;5028598;28;20184;-44
2023/12/17 09:13:50;;;;;;;6.10;5.50;;;;;;;11.54;56.13;96753.44;5027760;28;20281;-46
2023/12/17 09:16:18;;;;;;;6.93;5.13;;;;;;;11.42;56.18;96759.31;5027632;28;20267;-46
2023/12/17 09:18:45;;;;;;;7.30;6.10;;;;;;;11.38;56.21;96767.28;5035885;28;20183;-49
2023/12/17 09:21:11;;;;;;;6.40;5.80;;;;;;;11.27;56.28;96766.19;5046459;28;20191;-45
2023/12/17 09:23:38;;;;;;;6.70;5.57;;;;;;;11.20;56.42;96761.50;5046803;28;20222;-44
2023/12/17 09:26:05;;;;;;;6.80;5.80;;;;;;;11.12;56.42;96756.00;5047065;28;20624;-46
2023/12/17 09:28:32;;;;;;;6.27;5.67;;;;;;;11.06;56.59;96757.19;5047256;28;20186;-45
2023/12/17 09:31:01;;;;;;;7.93;6.13;;;;;;;10.97;56.69;96761.13;5036718;28;20191;-46
2023/12/17 09:33:29;;;;;;;6.53;5.70;;;;;;;10.91;56.61;96760.63;5027407;28;20215;-45
2023/12/17 09:35:56;;;;;;;7.40;6.00;;;;;;;10.84;56.49;96751.66;5027185;28;20184;-45
2023/12/17 09:38:23;;;;;;;6.67;5.60;;;;;;;10.70;56.58;96737.91;5039674;28;20202;-45
2023/12/17 09:40:50;;;;;;;6.00;5.40;;;;;;;10.80;56.79;96756.16;5046434;28;20198;-45
2023/12/17 09:43:17;;;;;;;6.50;5.77;;;;;;;10.77;56.86;96758.88;5047192;28;20191;-45
2023/12/17 09:45:45;;;;;;;7.63;5.73;;;;;;;10.74;56.84;96759.84;5046816;28;20186;-45
2023/12/17 09:48:12;;;;;;;6.53;5.60;;;;;;;10.74;57.01;96764.97;5046965;28;20249;-44
2023/12/17 09:50:40;;;;;;;7.73;5.77;;;;;;;10.72;56.89;96753.19;5046212;28;20190;-46
2023/12/17 09:53:07;;;;;;;7.33;5.57;;;;;;;10.71;56.89;96747.25;5047387;28;20215;-46
2023/12/17 09:55:34;;;;;;;6.43;5.80;;;;;;;10.72;56.80;96740.41;5046916;28;20256;-46
2023/12/17 09:58:03;;;;;;;4.80;4.40;;;;;;;11.20;89.96;96736.72;5030753;28;20195;-48
2023/12/17 10:00:30;;;;;;;5.50;4.43;;;;;;;11.96;90.43;96730.41;5027996;28;20283;-47
2023/12/17 10:03:03;;;;;;;5.13;4.40;;;;;;;12.68;85.42;96721.50;5040989;28;20215;-48
2023/12/17 10:05:31;;;;;;;5.17;4.67;;;;;;;13.28;80.64;96715.78;5040135;28;20227;-46
2023/12/17 10:08:00;;;;;;;5.30;4.80;;;;;;;13.67;76.41;96693.41;5026685;28;20199;-46
2023/12/17 10:10:27;;;;;;;4.60;4.20;;;;;;;14.27;73.71;96720.88;5026667;28;20307;-45
2023/12/17 10:12:54;;;;;;;5.50;4.80;;;;;;;14.59;71.62;96719.47;5026891;28;20249;-46
2023/12/17 10:15:21;;;;;;;5.23;4.77;;;;;;;14.65;69.75;96725.03;5027972;28;20282;-46
2023/12/17 10:17:48;;;;;;;5.50;4.83;;;;;;;14.42;67.95;96702.66;5042876;28;20195;-48
2023/12/17 10:20:19;;;;;;;5.33;4.83;;;;;;;14.38;66.14;96716.69;5026313;28;20198;-48
2023/12/17 10:23:03;;;;;;;11.47;5.60;;;;;;;14.13;64.62;96712.50;5019111;28;20312;-49
2023/12/17 10:25:30;;;;;;;5.37;4.87;;;;;;;13.80;63.75;96686.47;5024977;28;20238;-45
2023/12/17 10:27:59;;;;;;;6.60;5.30;;;;;;;13.80;63.30;96703.66;5026628;28;20664;-44
2023/12/17 10:30:29;;;;;;;6.30;5.37;;;;;;;13.47;62.74;96687.09;5026546;28;20203;-47
2023/12/17 10:32:57;;;;;;;5.57;5.07;;;;;;;13.44;62.23;96709.63;5036670;28;20199;-45
2023/12/17 10:35:25;;;;;;;6.17;5.57;;;;;;;13.23;61.66;96704.19;5050325;28;20202;-45
2023/12/17 10:37:55;;;;;;;6.77;5.00;;;;;;;13.10;61.39;96705.91;5050336;28;20474;-45
2023/12/17 10:40:25;;;;;;;5.60;5.10;;;;;;;12.93;61.02;96700.16;5050732;28;20765;-46
2023/12/17 10:42:54;;;;;;;6.37;5.60;;;;;;;12.81;61.01;96699.22;5049512;28;20187;-45
2023/12/17 10:45:22;;;;;;;6.40;5.80;;;;;;;12.74;61.03;96705.72;5049141;28;20269;-45
2023/12/17 10:47:52;;;;;;;6.53;5.43;;;;;;;12.64;60.61;96708.97;5049975;28;20194;-45
2023/12/17 10:50:21;;;;;;;6.23;5.37;;;;;;;12.46;60.40;96696.41;5049648;28;20199;-44
2023/12/17 10:52:48;;;;;;;6.57;5.77;;;;;;;12.44;60.01;96710.28;5037260;28;20192;-44
2023/12/17 10:55:15;;;;;;;6.33;5.73;;;;;;;12.34;59.96;96715.16;5030408;28;20198;-46
2023/12/17 10:57:48;;;;;;;5.37;4.87;;;;;;;12.25;59.90;96702.94;5030122;28;20211;-44
2023/12/17 11:00:19;;;;;;;7.13;6.07;;;;;;;12.18;59.77;96706.81;5040630;28;20242;-46
2023/12/17 11:02:49;;;;;;;6.13;5.53;;;;;;;12.11;59.77;96706.38;5036288;28;20282;-46
2023/12/17 11:05:16;;;;;;;6.07;5.40;;;;;;;12.02;59.60;96684.69;5050011;28;20253;-45
2023/12/17 11:07:43;;;;;;;6.27;5.30;;;;;;;11.99;59.44;96684.88;5049740;28;20201;-45
2023/12/17 11:10:11;;;;;;;6.43;5.70;;;;;;;11.96;59.42;96686.81;5049272;28;20210;-45
2023/12/17 11:12:39;;;;;;;6.53;5.17;;;;;;;11.73;59.13;96637.78;5049637;28;20297;-46
2023/12/17 11:15:08;;;;;;;6.80;5.43;;;;;;;11.92;59.04;96664.88;5048905;28;20741;-46
2023/12/17 11:17:35;;;;;;;5.97;5.40;;;;;;;11.97;59.03;96673.09;5046969;28;20202;-45
2023/12/17 11:20:03;;;;;;;7.40;5.70;;;;;;;12.00;58.83;96666.03;5029902;28;20200;-46
2023/12/17 11:22:36;;;;;;;6.60;5.90;;;;;;;12.03;58.48;96662.44;5028935;28;20286;-45
2023/12/17 11:25:04;;;;;;;6.03;5.23;;;;;;;11.87;58.46;96633.56;5029439;28;20250;-45
2023/12/17 11:27:32;;;;;;;6.30;5.60;;;;;;;12.05;58.47;96669.13;5029191;28;20195;-46
2023/12/17 11:29:59;;;;;;;6.43;5.73;;;;;;;12.04;58.23;96658.94;5029436;28;20195;-45
2023/12/17 11:32:27;;;;;;;5.70;5.10;;;;;;;11.95;58.27;96637.28;5029085;28;20196;-45
2023/12/17 11:34:56;;;;;;;6.43;5.47;;;;;;;11.91;58.17;96646.09;5028986;28;20247;-46
2023/12/17 11:37:24;;;;;;;6.73;5.47;;;;;;;11.75;58.23;96643.66;5035677;28;20183;-45